Rochester Track Club | Rochester, MN
Advanced Search


Subscription Login
LOGIN | SUBSCRIBE

Join RTC
Volunteer
Member area
Resources
Clothing
Awards
Galleries
Sponsors
Contacts
Videos



home : results : 2011
November 23, 2017

2011 Chester Woods Trail 50K, 10 Mile and 5K Age Groups & Overall
2011 Chester Woods 50k Results
1.David Sanderson 4:02:04

2.Andy Hemenway 4:14:27

3.Kevin Johnson 4:18:27

4.Andy Spence 4:19:54

5.Chris Koch 4:20:06

6:Matt Howard 4:50:22

7.Rebecca George 5:05:26

8.Joesph Altendahl 5:07:06

9.Bill Pomerenke 5:10:41

10.Jim Parry 5:12:12

11.Matt Schrader 5:25:25

12.Nick Keller 5:39:20

13.Amy Hutchison 5:45:04

14 Maria Danz 5:50:26

15. Wayne Jenderny 5:50:26

16. Steve Corner 5:54:40

17. Jim Benike 5:54:40

18.Tracy Harrison 6:39:50

19. Lin Gentling 7:05:32

20.Patricia Torchia 7:24:33

21.Lynn Saari 7:31:12

22.Sara Lovett 7:31:12

DNF Mark Ekwall +22 miles

DNF Nick Templeton +22 miles


*****2011 RESULTS ******* Chester Woods Trail Run - 10 Mile



********2011 10 MILE AGE GROUPS *********************

FEMALE AGE GROUP: 1 - 19

Place O'All Name Age City St Time Pace

===== ===== ======================= === ================== == ======= =====

1 98 Marianne Scheitel 19 Rochester MN 1:52:27 11:15

2 99 Julia Werning 19 Rochester MN 1:52:27 11:15



MALE AGE GROUP: 1 - 19

===== ===== ======================= === ================== == ======= =====

1 49 Alex Woo 18 Rochester MN 1:28:30 8:51

2 66 Zach Klein 15 Rochester MN 1:36:22 9:39

3 90 Jarren Friedrich 16 Becker MN 1:46:44 10:41



FEMALE AGE GROUP: 20 - 29

===== ===== ======================= === ================== == ======= =====

1 12 Erin Manlove 26 Minneapolis MN 1:12:37 7:16

2 16 Michelle Jebsen 26 Milaca MN 1:16:22 7:39

3 23 Summer Groth 21 Goodhue MN 1:19:16 7:56

4 26 Amanda Lube 25 Minneapolis MN 1:20:04 8:01

5 35 Rachael Vaubel 28 Rochester MN 1:24:31 8:27

6 36 Jenny Mueller 28 Rochester MN 1:24:31 8:28

7 43 Carrie Johnson 29 Minnetonka MN 1:27:24 8:45

8 63 Katie Schneider 29 Rochester MN 1:34:37 9:28

9 68 Amanda Rodning 25 Rochester MN 1:36:31 9:40

10 71 Amanda Leightner 26 Rochester MN 1:37:14 9:44

11 72 Natallia Hawkins 29 Oronoco MN 1:37:33 9:46

12 78 Amy Mueller 27 Lake City MN 1:40:17 10:02

13 83 Laura Halverson 27 Edina MN 1:41:54 10:12

14 100 Jennifer Heath 25 Apple Valley MN 1:52:54 11:18

15 106 Amanda Schramski 25 Rochester MN 1:58:37 11:52

16 110 Jennifer Rand 28 Minneapolis MN 2:02:22 12:15

17 112 Olivia Grant 25 Owatonna MN 2:07:37 12:46



MALE AGE GROUP: 20 - 29

===== ===== ======================= === ================== == ======= =====

1 1 Mike Torchia 23 Rochester MN 54:25 5:27

2 2 Ben Marvin 29 Rochester MN 1:00:41 6:05

3 3 Brett Wilson 26 Onamia MN 1:05:44 6:35

4 8 Dan Hubbard 26 Onalaska WI 1:11:24 7:09

5 17 James Morrison 26 Rochester MN 1:16:23 7:39

6 19 Sven Hoaglund 24 LaCrosse WI 1:17:00 7:42

7 24 Michael Prendergast 27 Rochester MN 1:19:39 7:58

8 31 Jon Pace 25 Milwaukee WI 1:22:38 8:16

9 33 Jeff Stuckenbroker 25 Windom MN 1:24:00 8:24

10 37 Luke Hoeppner 29 Rochester MN 1:24:33 8:28

11 58 David Johnson 20 Hager City WI 1:33:25 9:21

12 79 Jordan Olsgard 20 Dover MN 1:40:51 10:06

13 80 Brandon Benshoof 26 Rochester MN 1:41:04 10:07

14 85 Chris Wendland 29 Rochester MN 1:43:03 10:19

15 105 Tim Nienow 27 Rochester MN 1:56:18 11:38



FEMALE AGE GROUP: 30 - 39

===== ===== ======================= === ================== == ======= =====

1 30 Lisa Truax 31 Winona MN 1:22:32 8:16

2 46 Mary Vancura 31 St Paul MN 1:27:55 8:48

3 57 Leah Popp 30 Rice MN 1:32:49 9:17

4 59 Tonya Pavek 38 New Prague MN 1:33:31 9:22

5 62 Shari Hegland 38 Holman WI 1:34:28 9:27

6 69 Kari Justin 38 Stewartville MN 1:36:36 9:40

7 70 Nicole Bruessel 34 Owatonna MN 1:36:41 9:41

8 74 Calie hyatt 34 Dover MN 1:37:55 9:48

9 75 Rebecca Vossberg 30 Rochester MN 1:38:35 9:52

10 76 Candace Garbow 32 Rochester MN 1:38:35 9:52

11 81 Crystal Andring 30 Eyota MN 1:41:26 10:09

12 86 Rebecca Paape 34 Rochester MN 1:43:07 10:19

13 101 Cassie Hammel 32 Eyota MN 1:54:19 11:26

14 109 Brianne Hamann 30 Rochester MN 2:02:07 12:13

15 116 Sandra Schue 36 Minneapolis MN 2:19:35 13:58



MALE AGE GROUP: 30 - 39

===== ===== ======================= === ================== == ======= =====

1 4 Devin Oglesbee 35 Rochester MN 1:06:42 6:41

2 7 Robert Edman 30 Minneapolis MN 1:10:34 7:04

3 10 Rusty Hutchison 32 Ames IA 1:12:01 7:13

4 11 Steve Rudzik 35 Rochester MN 1:12:17 7:14

5 13 Christopher Coon 30 Rochester MN 1:13:14 7:20

6 20 James Makepeace 36 New Albin IA 1:17:12 7:44

7 21 Tom O'Hara 36 St Charles MN 1:17:17 7:44

8 25 Kyle Kroening 31 Rochester MN 1:19:53 8:00

9 29 Chris Gordan 36 New Ulm MN 1:21:34 8:10

10 34 Michael Christopherson 35 Northfied MN 1:24:24 8:27

11 40 Jack Rol 38 Lake City MN 1:26:22 8:39

12 41 Marc Becker 31 Rochester MN 1:26:46 8:41

13 44 Peter Bauer 31 St Paul MN 1:27:33 8:46

14 48 Geno Palazzari 35 Gillette WY 1:28:24 8:51

15 52 Ola Kuniaki 33 Rochester MN 1:29:03 8:55

16 55 Nate Reit 32 Rochester MN 1:31:18 9:08



FEMALE AGE GROUP: 40 - 49



===== ===== ======================= === ================== == ======= =====

1 27 Lisa Hines 48 Waite Park MN 1:20:34 8:04

2 38 Kristen Zhao 42 Rochester MN 1:24:56 8:30

3 77 Christine Olson 41 Parkers Prairie MN 1:38:52 9:54

4 84 Kathy Bates 46 Pine Island MN 1:42:49 10:17

5 89 Anne Baron 44 Byron MN 1:46:27 10:39

6 107 Christine Etterman 45 Burnsville MN 2:00:18 12:02

7 117 Lori Friedrich 41 Becker MN 2:21:52 14:12

8 118 Jerian Root 41 Rochester MN 2:22:20 14:14



MALE AGE GROUP: 40 - 49

===== ===== ======================= === ================== == ======= =====

1 6 Patrick Steward 42 Rochester MN 1:08:01 6:49

2 9 Chip Schilling 42 LaCrosse WI 1:11:43 7:11

3 14 Tom O'Leary 46 Byron MN 1:15:21 7:33

4 18 Andy Becker 41 Rochester MN 1:16:26 7:39

5 32 Mark Winter 42 Rochester MN 1:22:58 8:18

6 42 David Becker 45 Eden Prairie MN 1:26:57 8:42

7 47 Mike Klein 47 Rochester MN 1:28:16 8:50

8 53 Akira Yatsuhashi 41 Decorah IA 1:29:46 8:59

9 61 John Eiden 47 Chanhassen MN 1:33:42 9:23

10 67 Bill Mettler 43 Spring Valley MN 1:36:29 9:39

11 88 Tod Bellrichard 49 Byron MN 1:45:46 10:35

12 92 Douglas Guenther 44 Rochester MN 1:47:51 10:48

13 93 Jim Backlund 49 Rochester MN 1:49:35 10:58

14 95 Gary Leask 46 Burnsville MN 1:50:58 11:06

15 102 Giuseppe Lanzino 46 Rochester MN 1:54:28 11:27

16 103 Alejandro Rabinstein 40 Rochester MN 1:54:29 11:27



FEMALE AGE GROUP: 50 - 59

===== ===== ======================= === ================== == ======= =====

1 50 Sabrena Resman 53 Rochester MN 1:28:39 8:52

2 56 Marise Widmer 51 St Paul MN 1:32:38 9:16

3 60 Ann-Kristin Gjertsen 50 Kolbotn Norway NO 1:33:39 9:22

4 73 Donna Okroy 54 Beldenville WI 1:37:46 9:47

5 87 Amy Donahoe-Anshus 52 Chatfield MN 1:45:17 10:32

6 91 Susan Goetz-Meyers 53 Plainview MN 1:47:47 10:47

7 104 Sarah Melde 52 St Charles MN 1:55:51 11:36

8 108 Kelly Doyle 50 Edina MN 2:01:18 12:08

9 111 Kelly Classic 51 Rochester MN 2:05:51 12:36

10 113 Michelle Shefveland 50 Elk River MN 2:08:14 12:50

11 121 Angel Luther 52 St Louis Park MN 2:47:01 16:43



MALE AGE GROUP: 50 - 59

===== ===== ======================= === ================== == ======= =====

1 5 James Hannon 52 Rochester MN 1:07:33 6:46

2 15 Jim McDonell 58 Woodbury MN 1:16:03 7:37

3 22 Tom Woo 52 Rochester MN 1:18:28 7:51

4 28 Larry Kleppe 56 Elgin MN 1:20:57 8:06

5 39 Rich Mohrland 50 Rosemount MN 1:26:02 8:37

6 45 David Eide 53 Kasson MN 1:27:43 8:47

7 51 Dave Phillips 56 Spring Valley MN 1:28:40 8:52

8 54 Dan Valentine 52 Winona MN 1:30:16 9:02

9 65 Chris Amley 58 Woodbury MN 1:35:02 9:31

10 115 Rick Luther 57 St Louis Park MN 2:19:02 13:55



FEMALE AGE GROUP: 60 - 69

===== ===== ======================= === ================== == ======= =====

1 64 Yvonne Hubmayr 60 Rochester MN 1:34:52 9:30

2 114 Kathy Schmidt 66 St Cloud MN 2:14:10 13:25



MALE AGE GROUP: 60 - 69

Place O'All Name Age City St Time Pace

===== ===== ======================= === ================== == ======= =====

1 82 Denny Rehm 61 Winona MN 1:41:33 10:10

2 94 Steve Paladie 68 Bloomington MN 1:50:32 11:04

3 96 Ronald Schroeder 69 Winona MN 1:51:41 11:11



FEMALE AGE GROUP: 70 - 99

Place O'All Name Age City St Time Pace

===== ===== ======================= === ================== == ======= =====

1 97 Sandra Dalquist 70 Rochester MN 1:51:50 11:11



MALE AGE GROUP: 70 - 99

===== ===== ======================= === ================== == ======= =====

1 119 Pat Brown 74 Lewiston MN 2:34:15 15:26

2 120 Justin Murray 73 Rochester MN 2:34:42 15:29





*****2011 RESULTS ******* Chester Woods Trail Run - 5K

*************** 5K AGE GROUPS ***************

FEMALE AGE GROUP: 1 - 10

===== ===== ======================= === ================== == ======= =====

1 86 Emily Hogen 10 Rochester MN 32:42 10:32

2 89 Sidney Lichty 9 Rochester MN 32:49 10:34

3 98 Avery Lichty 6 Rochester MN 34:22 11:04

4 118 Sara Holmes 10 Rochester MN 37:32 12:05

5 135 Jenna DeWitt 10 Rochester MN 45:11 14:33



MALE AGE GROUP: 1 - 10

===== ===== ======================= === ================== == ======= =====

1 25 Jace Minelli 10 Kasson MN 26:24 8:30

2 83 Ben Nauman 8 Ramsey MN 32:22 10:26

3 131 Benjamin Schmitt 5 Rochester MN 43:31 14:01



FEMALE AGE GROUP: 11 - 12

===== ===== ======================= === ================== == ======= =====

1 43 Annika Juenemann 11 Eyota MN 28:40 9:14



MALE AGE GROUP: 11 - 12

===== ===== ======================= === ================== == ======= =====

1 19 Nathaniel Blichfeldt 12 Savage MN 25:31 8:13

2 23 Matthew Harfmann 11 Mantorville MN 26:24 8:30

3 24 Jared Johnson 11 Dodge Center MN 26:24 8:30

4 56 Carter Benike 11 Rochester MN 30:23 9:47



FEMALE AGE GROUP: 13 - 14

===== ===== ======================= === ================== == ======= =====

1 62 Ann Holmes 13 Rochester MN 30:48 9:55

2 94 Diana Sorenson 14 Rochester MN 33:33 10:48



MALE AGE GROUP: 13 - 14

===== ===== ======================= === ================== == ======= =====

FEMALE AGE GROUP: 15 - 16

===== ===== ======================= === ================== == ======= =====



MALE AGE GROUP: 15 - 16

===== ===== ======================= === ================== == ======= =====

1 7 Adam Rahn 15 Rochester MN 21:04 6:47



FEMALE AGE GROUP: 17 - 18

===== ===== ======================= === ================== == ======= =====



MALE AGE GROUP: 17 - 18

===== ===== ======================= === ================== == ======= =====

1 3 Shane Nepstad 17 Byron MN 19:00 6:07



FEMALE AGE GROUP: 19 - 29

===== ===== ======================= === ================== == ======= =====

1 30 Beth Lube 23 Minneapolis MN 27:14 8:46

2 33 Maria Montelongo 26 Rochester MN 27:36 8:53

3 39 Melissa Ihrke 27 Eyota MN 28:17 9:06

4 51 Jen. Nicholson 29 Owatonna MN 29:55 9:38

5 53 Nicole Batulis 29 Minneapolis MN 30:00 9:40

6 80 Melissa Schuh 26 Rochester MN 32:10 10:22

7 82 Naura Anderson 28 Rochester MN 32:14 10:23

8 102 Melissa Zamzow 29 Eyota MN 34:46 11:12

9 106 Michelle Hicks 27 Rochester MN 35:40 11:29

10 133 Maggie Om 25 Rochester MN 44:39 14:23



MALE AGE GROUP: 19 - 29

===== ===== ======================= === ================== == ======= =====

1 1 Dallas Davidson 21 Spring Valley MN 18:30 5:58

2 4 Andrew Schulka 26 Rochester MN 19:10 6:11

3 8 Aaron Nepstad 20 Byron MN 21:16 6:51

4 12 Tyrel Clark 28 Eyota MN 24:10 7:47

5 15 Frank Suera 26 Byron MN 24:24 7:52

6 16 Oscar Orvebis 29 Rochester MN 24:29 7:53

7 34 David Batulis 29 Minneapolis MN 27:40 8:55

8 36 Aaron Pompeian 26 Rochester MN 28:06 9:03

9 52 Anthony Mason 26 Mound MN 29:58 9:39

10 78 Sathish Selvaraju 25 Rochester MN 31:50 10:15

11 112 Sasa Andrijasevic 28 Rochester MN 36:11 11:39

FEMALE AGE GROUP: 30 - 39

===== ===== ======================= === ================== == ======= =====

1 21 Kristy Winters 33 Rochester MN 25:46 8:18

2 42 Tina Mohn 30 Eyota MN 28:30 9:11

3 46 Jill Flaby 32 Dover MN 29:06 9:22

4 47 Nicole Langdon 35 Rochester MN 29:20 9:27

5 50 Deborah Stratman 39 Rochester MN 29:53 9:37

6 60 Amy Ragland 33 Rochester MN 30:35 9:51

7 70 Dana Friese 31 Pine Island MN 31:11 10:03

8 79 Sara Selvaraju 35 Rochester MN 32:00 10:18

9 90 Rebecca Zatorowski 34 Rochester MN 32:54 10:36

10 93 Kerrie Heath 30 Rochester MN 33:24 10:45

11 96 Shelly Johnson 37 Rochester MN 34:04 10:58

12 101 Shellese Kirtz 31 Eyota MN 34:43 11:11

13 103 Andrea Cogal 31 Rochester MN 35:00 11:16

14 105 Courtney Howes 30 Rochester MN 35:35 11:27

15 107 Loria Briggs 35 Eyota MN 35:41 11:29

16 110 Jodi Kaseno 39 Rochester MN 35:58 11:35

17 111 Meg Repede 32 Rochester MN 36:03 11:36

18 113 Sulynn Russell 35 Rochester MN 36:15 11:40

19 114 Melissa Weigel 35 Rochester MN 36:20 11:42

20 122 Courtny Lawson 33 Rochester MN 38:00 12:14

21 124 Natalie Ough 33 Rochester MN 38:51 12:31

22 127 Lisa Palazzari 30 Gillette WY 39:35 12:45

23 134 Cheryl DeWitt 37 Rochester MN 44:59 14:29



MALE AGE GROUP: 30 - 39

===== ===== ======================= === ================== == ======= =====

1 9 Brooke Strom 38 Wells MN 22:02 7:06

2 27 Patrick Byrnes 31 Blaine MN 26:43 8:36

3 29 Shaun Heath 30 Rochester MN 27:06 8:44

4 32 Steve Mullen 31 Rochester MN 27:30 8:51

5 44 Eric Winters 32 Rochester MN 28:41 9:14

6 57 Aaron Benike 38 Rochester MN 30:24 9:47

7 58 Ryan Anderson 33 Rochester MN 30:26 9:48

8 59 Andrew Gough 31 Wichita KS 30:33 9:50

9 73 Mike Huth 30 Altura MN 31:33 10:10

10 77 Ryan Holmes 39 Byron MN 31:44 10:13

11 85 Brian Mathison 31 Apple Valley MN 32:30 10:28

12 88 Jeffrey Nelson 36 Lewiston MN 32:46 10:33

13 99 Todd Lichty 39 Rochester MN 34:25 11:05

14 132 Mike Schmitt 34 Rochester MN 43:31 14:01

FEMALE AGE GROUP: 40 - 49

===== ===== ======================= === ================== == ======= =====

1 10 Roxanne Ready 48 Winona MN 23:49 7:40

2 20 Lonna Simonovski 43 Winona MN 25:35 8:14

3 45 Cathy Stone 43 Stewartville MN 28:46 9:16

4 63 Ann Nepstad 46 Byron MN 30:49 9:56

5 67 Laura Lenz 41 Rochester MN 31:03 10:00

6 72 Lori Klemp 44 Rochester MN 31:25 10:07

7 74 Lisa Klotzbach 42 Rochester MN 31:35 10:10

8 75 Katie Galvin 49 Rochester MN 31:38 10:11

9 81 Tracy Hanson 41 Rochester MN 32:11 10:22

10 92 Kellie Kuisle 47 Stewartville MN 33:15 10:42

11 100 Teresa McCormack 48 Rochester MN 34:31 11:07

12 104 Tamra Drees 42 Stewartville MN 35:29 11:26

13 108 Michelle Buri 44 Racine MN 35:50 11:32

14 117 Tracy Becker 42 Rochester MN 37:27 12:04

15 121 Jamie Kimball 46 Rochester MN 37:55 12:13

16 126 Jeanne Nauman 43 Ramsey MN 39:20 12:40

17 128 Sue Hartwig 47 Rochester MN 39:35 12:45

18 130 Ronda Lovelace 45 Rochester MN 39:54 12:51



MALE AGE GROUP: 40 - 49

===== ===== ======================= === ================== == ======= =====

1 2 Mario Minelli 40 Kasson MN 18:45 6:03

2 6 Henry Walker 44 Rochester MN 20:15 6:31

3 11 Randy Stratman 48 Rochester MN 23:55 7:42

4 14 Todd Rowekamp 42 Rochester MN 24:19 7:50

5 17 Steve Juenemann 40 Eyota MN 24:43 7:58

6 18 Gary Lovelace 44 Rochester MN 24:48 7:59

7 26 Mark Mueller 48 Rochester MN 26:29 8:32

8 28 Chris Olson 45 Parkers Prairie MN 27:05 8:44

9 35 Paul Friedman 48 Rochester MN 27:59 9:01

10 69 Joshua Johnson 40 Rochester MN 31:09 10:02

11 84 Jon Nauman 45 Ramsey MN 32:23 10:26

12 87 William Hogan 43 Rochester MN 32:43 10:32

13 91 Benjamin Pugh 46 Prior Lake MN 33:14 10:42

14 119 Eric Sorenson 45 Rochester MN 37:36 12:06

15 120 Jay Kimball 49 Eyota MN 37:52 12:12

16 123 John Cook 43 Claremont MN 38:39 12:27

FEMALE AGE GROUP: 50 - 59

===== ===== ======================= === ================== == ======= =====

1 38 Maggie Herman 51 Rochester MN 28:11 9:05

2 61 Nina Wobken 56 Minneapolis MN 30:46 9:54

3 65 Elaine Eide 51 Kasson MN 30:55 9:57

4 68 Jean Murray 52 Rochester MN 31:04 10:00

5 71 Linda Ambord 55 Sparta WI 31:18 10:05

6 76 Pam Phillips 56 Spring Valley MN 31:43 10:13

7 95 Cindy Smith 51 Rochester MN 33:38 10:50

8 115 Susie Roudolph-Servi 50 Maple Grove MN 36:47 11:51

9 116 Jean Gosse-Stahl 51 Rochester MN 36:55 11:53

10 125 Cecilia Dingledy 56 Rochester MN 39:15 12:38

11 129 Cher Hager 55 Rochester MN 39:54 12:51

12 137 Marcia Thompson 51 Rochester MN 49:07 15:49



MALE AGE GROUP: 50 - 59

===== ===== ======================= === ================== == ======= =====

1 5 David Peterson 50 Bloomington MN 20:06 6:28

2 22 Mike Watson 59 Rochester MN 26:18 8:28

3 37 Micheal Herman 52 Rochester MN 28:07 9:03

4 40 Mike Mason 54 Mound MN 28:18 9:07

5 41 Mike Kennedy 51 St Cloud MN 28:19 9:07

6 48 Mike McCormack 50 Rochester MN 29:30 9:30

7 49 Randy Frey 52 Rochester MN 29:51 9:37

8 54 Wally Arnold 51 Byron MN 30:01 9:40

9 55 Rick Eickemeyer 50 Rochester MN 30:19 9:46

10 64 Micheal Holmes 53 Rochester MN 30:50 9:56

11 66 Mark Wernstrom 51 Rochester MN 30:57 9:58

12 97 Todd Wade 54 Rochester MN 34:14 11:01



FEMALE AGE GROUP: 60 - 69

===== ===== ======================= === ================== == ======= =====



MALE AGE GROUP: 60 - 69

===== ===== ======================= === ================== == ======= =====

1 13 John Schlegelmilch 64 Red Wing MN 24:14 7:48

2 31 Jack Wera 60 Winona MN 27:20 8:48

3 109 Terry Severson 63 Rochester MN 35:50 11:32



FEMALE AGE GROUP: 70 - 99

===== ===== ======================= === ================== == ======= =====

MALE AGE GROUP: 70 - 99

===== ===== ======================= === ================== == ======= =====

1 136 Jerry Reynolds 71 Rochester MN 47:14 15:12





OVERALL RESULTS Chester Woods Trail Run - 10 Mile

Place Name Age S City St Time Pace

===== ======================= === = =============== == ======= =====

1 Mike Torchia 23 M Rochester MN 54:25 5:27

2 Ben Marvin 29 M Rochester MN 1:00:41 6:05

3 Brett Wilson 26 M Onamia MN 1:05:44 6:35

4 Devin Oglesbee 35 M Rochester MN 1:06:42 6:41

5 James Hannon 52 M Rochester MN 1:07:33 6:46

6 Patrick Steward 42 M Rochester MN 1:08:01 6:49

7 Robert Edman 30 M Minneapolis MN 1:10:34 7:04

8 Dan Hubbard 26 M Onalaska WI 1:11:24 7:09

9 Chip Schilling 42 M LaCrosse WI 1:11:43 7:11

10 Rusty Hutchison 32 M Ames IA 1:12:01 7:13

11 Steve Rudzik 35 M Rochester MN 1:12:17 7:14

12 Erin Manlove 26 F Minneapolis MN 1:12:37 7:16

13 Christopher Coon 30 M Rochester MN 1:13:14 7:20

14 Tom O'Leary 46 M Byron MN 1:15:21 7:33

15 Jim McDonell 58 M Woodbury MN 1:16:03 7:37

16 Michelle Jebsen 26 F Milaca MN 1:16:22 7:39

17 James Morrison 26 M Rochester MN 1:16:23 7:39

18 Andy Becker 41 M Rochester MN 1:16:26 7:39

19 Sven Hoaglund 24 M LaCrosse WI 1:17:00 7:42

20 James Makepeace 36 M New Albin IA 1:17:12 7:44

21 Tom O'Hara 36 M St Charles MN 1:17:17 7:44

22 Tom Woo 52 M Rochester MN 1:18:28 7:51

23 Summer Groth 21 F Goodhue MN 1:19:16 7:56

24 Michael Prendergast 27 M Rochester MN 1:19:39 7:58

25 Kyle Kroening 31 M Rochester MN 1:19:53 8:00

26 Amanda Lube 25 F Minneapolis MN 1:20:04 8:01

27 Lisa Hines 48 F Waite Park MN 1:20:34 8:04

28 Larry Kleppe 56 M Elgin MN 1:20:57 8:06

29 Chris Gordan 36 M New Ulm MN 1:21:34 8:10

30 Lisa Truax 31 F Winona MN 1:22:32 8:16

31 Jon Pace 25 M Milwaukee WI 1:22:38 8:16

32 Mark Winter 42 M Rochester MN 1:22:58 8:18

33 Jeff Stuckenbroker 25 M Windom MN 1:24:00 8:24

34 Michael Christopherson 35 M Northfied MN 1:24:24 8:27

35 Rachael Vaubel 28 F Rochester MN 1:24:31 8:27

36 Jenny Mueller 28 F Rochester MN 1:24:31 8:28

37 Luke Hoeppner 29 M Rochester MN 1:24:33 8:28

38 Kristen Zhao 42 F Rochester MN 1:24:56 8:30

39 Rich Mohrland 50 M Rosemount MN 1:26:02 8:37

40 Jack Rol 38 M Lake City MN 1:26:22 8:39

41 Marc Becker 31 M Rochester MN 1:26:46 8:41

42 David Becker 45 M Eden Prairie MN 1:26:57 8:42

43 Carrie Johnson 29 F Minnetonka MN 1:27:24 8:45

44 Peter Bauer 31 M St Paul MN 1:27:33 8:46

45 David Eide 53 M Kasson MN 1:27:43 8:47

46 Mary Vancura 31 F St Paul MN 1:27:55 8:48

47 Mike Klein 47 M Rochester MN 1:28:16 8:50

48 Geno Palazzari 35 M Gillette WY 1:28:24 8:51

49 Alex Woo 18 M Rochester MN 1:28:30 8:51

50 Sabrena Resman 53 F Rochester MN 1:28:39 8:52

51 Dave Phillips 56 M Spring Valley MN 1:28:40 8:52

52 Ola Kuniaki 33 M Rochester MN 1:29:03 8:55

53 Akira Yatsuhashi 41 M Decorah IA 1:29:46 8:59

54 Dan Valentine 52 M Winona MN 1:30:16 9:02

55 Nate Reit 32 M Rochester MN 1:31:18 9:08

56 Marise Widmer 51 F St Paul MN 1:32:38 9:16

57 Leah Popp 30 F Rice MN 1:32:49 9:17

58 David Johnson 20 M Hager City WI 1:33:25 9:21

59 Tonya Pavek 38 F New Prague MN 1:33:31 9:22

60 Ann-Kristin Gjertsen 50 F Kolboth NO 1:33:39 9:22

61 John Eiden 47 M Chanhassen MN 1:33:42 9:23

62 Shari Hegland 38 F Holman WI 1:34:28 9:27

63 Katie Schneider 29 F Rochester MN 1:34:37 9:28

64 Yvonne Hubmayr 60 F Rochester MN 1:34:52 9:30

65 Chris Amley 58 M Woodbury MN 1:35:02 9:31

66 Zach Klein 15 M Rochester MN 1:36:22 9:39

67 Bill Mettler 43 M Spring Valley MN 1:36:29 9:39

68 Amanda Rodning 25 F Rochester MN 1:36:31 9:40

69 Kari Justin 38 F Stewartville MN 1:36:36 9:40

70 Nicole Bruessel 34 F Owatonna MN 1:36:41 9:41

71 Amanda Leightner 26 F Rochester MN 1:37:14 9:44

72 Natallia Hawkins 29 F Oronoco MN 1:37:33 9:46

73 Donna Okroy 54 F Beldenville WI 1:37:46 9:47

74 Calie hyatt 34 F Dover MN 1:37:55 9:48

75 Rebecca Vossberg 30 F Rochester MN 1:38:35 9:52

76 Candace Garbow 32 F Rochester MN 1:38:35 9:52

77 Christine Olson 41 F Parkers Prairie MN 1:38:52 9:54

78 Amy Mueller 27 F Lake City MN 1:40:17 10:02

79 Jordan Olsgard 20 M Dover MN 1:40:51 10:06

80 Brandon Benshoof 26 M Rochester MN 1:41:04 10:07

81 Crystal Andring 30 F Eyota MN 1:41:26 10:09

82 Denny Rehm 61 M Winona MN 1:41:33 10:10

83 Laura Halverson 27 F Edina MN 1:41:54 10:12

84 Kathy Bates 46 F Pine Island MN 1:42:49 10:17

85 Chris Wendland 29 M Rochester MN 1:43:03 10:19

86 Rebecca Paape 34 F Rochester MN 1:43:07 10:19

87 Amy Donahoe-Anshus 52 F Chatfield MN 1:45:17 10:32

88 Tod Bellrichard 49 M Byron MN 1:45:46 10:35

89 Anne Baron 44 F Byron MN 1:46:27 10:39

90 Jarren Friedrich 16 M Becker MN 1:46:44 10:41

91 Susan Goetz-Meyers 53 F Plainview MN 1:47:47 10:47

92 Douglas Guenther 44 M Rochester MN 1:47:51 10:48

93 Jim Backlund 49 M Rochester MN 1:49:35 10:58

94 Steve Paladie 68 M Bloomington MN 1:50:32 11:04

95 Gary Leask 46 M Burnsville MN 1:50:58 11:06

96 Ronald Schroeder 69 M Winona MN 1:51:41 11:11

97 Sandra Dalquist 70 F Rochester MN 1:51:50 11:11

98 Marianne Scheitel 19 F Rochester MN 1:52:27 11:15

99 Julia Werning 19 F Rochester MN 1:52:27 11:15

100 Jennifer Heath 25 F Apple Valley MN 1:52:54 11:18

101 Cassie Hammel 32 F Eyota MN 1:54:19 11:26

102 Giuseppe Lanzino 46 M Rochester MN 1:54:28 11:27

103 Alejandro Rabinstein 40 M Rochester MN 1:54:29 11:27

104 Sarah Melde 52 F St Charles MN 1:55:51 11:36

105 Tim Nienow 27 M Rochester MN 1:56:18 11:38

106 Amanda Schramski 25 F Rochester MN 1:58:37 11:52

107 Christine Etterman 45 F Burnsville MN 2:00:18 12:02

108 Kelly Doyle 50 F Edina MN 2:01:18 12:08

109 Brianne Hamann 30 F Rochester MN 2:02:07 12:13

110 Jennifer Rand 28 F Minneapolis MN 2:02:22 12:15

111 Kelly Classic 51 F Rochester MN 2:05:51 12:36

112 Olivia Grant 25 F Owatonna MN 2:07:37 12:46

113 Michelle Shefveland 50 F Elk River MN 2:08:14 12:50

114 Kathy Schmidt 66 F St Cloud MN 2:14:10 13:25

115 Rick Luther 57 M St Louis Park MN 2:19:02 13:55

116 Sandra Schue 36 F Minneapolis MN 2:19:35 13:58

117 Lori Friedrich 41 F Becker MN 2:21:52 14:12

118 Jerian Root 41 F Rochester MN 2:22:20 14:14

119 Pat Brown 74 M Lewiston MN 2:34:15 15:26

120 Justin Murray 73 M Rochester MN 2:34:42 15:29

121 Angel Luther 52 F St Louis Park MN 2:47:01 16:43





OVERALL RESULTS Chester Woods Trail Run - 5K

Place Name Age S City St Time Pace

===== ======================= === = =============== == ======= =====

1 Dallas Davidson 21 M Spring Valley MN 18:30 5:58

2 Mario Minelli 40 M Kasson MN 18:45 6:03

3 Shane Nepstad 17 M Byron MN 19:00 6:07

4 Andrew Schulka 26 M Rochester MN 19:10 6:11

5 David Peterson 50 M Bloomington MN 20:06 6:28

6 Henry Walker 44 M Rochester MN 20:15 6:31

7 Adam Rahn 15 M Rochester MN 21:04 6:47

8 Aaron Nepstad 20 M Byron MN 21:16 6:51

9 Brooke Strom 38 M Wells MN 22:02 7:06

10 Roxanne Ready 48 F Winona MN 23:49 7:40

11 Randy Stratman 48 M Rochester MN 23:55 7:42

12 Tyrel Clark 28 M Eyota MN 24:10 7:47

13 John Schlegelmilch 64 M Red Wing MN 24:14 7:48

14 Todd Rowekamp 42 M Rochester MN 24:19 7:50

15 Frank Suera 26 M Byron MN 24:24 7:52

16 Oscar Orvebis 29 M Rochester MN 24:29 7:53

17 Steve Juenemann 40 M Eyota MN 24:43 7:58

18 Gary Lovelace 44 M Rochester MN 24:48 7:59

19 Nathaniel Blichfeldt 12 M Savage MN 25:31 8:13

20 Lonna Simonovski 43 F Winona MN 25:35 8:14

21 Kristy Winters 33 F Rochester MN 25:46 8:18

22 Mike Watson 59 M Rochester MN 26:18 8:28

23 Matthew Harfmann 11 M Mantorville MN 26:24 8:30

24 Jared Johnson 11 M Dodge Center MN 26:24 8:30

25 Jace Minelli 10 M Kasson MN 26:24 8:30

26 Mark Mueller 48 M Rochester MN 26:29 8:32

27 Patrick Byrnes 31 M Blaine MN 26:43 8:36

28 Chris Olson 45 M Parkers Prairie MN 27:05 8:44

29 Shaun Heath 30 M Rochester MN 27:06 8:44

30 Beth Lube 23 F Minneapolis MN 27:14 8:46

31 Jack Wera 60 M Winona MN 27:20 8:48

32 Steve Mullen 31 M Rochester MN 27:30 8:51

33 Maria Montelongo 26 F Rochester MN 27:36 8:53

34 David Batulis 29 M Minneapolis MN 27:40 8:55

35 Paul Friedman 48 M Rochester MN 27:59 9:01

36 Aaron Pompeian 26 M Rochester MN 28:06 9:03

37 Micheal Herman 52 M Rochester MN 28:07 9:03

38 Maggie Herman 51 F Rochester MN 28:11 9:05

39 Melissa Ihrke 27 F Eyota MN 28:17 9:06

40 Mike Mason 54 M Mound MN 28:18 9:07

41 Mike Kennedy 51 M St Cloud MN 28:19 9:07

42 Tina Mohn 30 F Eyota MN 28:30 9:11

43 Annika Juenemann 11 F Eyota MN 28:40 9:14

44 Eric Winters 32 M Rochester MN 28:41 9:14

45 Cathy Stone 43 F Stewartville MN 28:46 9:16

46 Jill Flaby 32 F Dover MN 29:06 9:22

47 Nicole Langdon 35 F Rochester MN 29:20 9:27

48 Mike McCormack 50 M Rochester MN 29:30 9:30

49 Randy Frey 52 M Rochester MN 29:51 9:37

50 Deborah Stratman 39 F Rochester MN 29:53 9:37

51 Jen. Nicholson 29 F Owatonna MN 29:55 9:38

52 Anthony Mason 26 M Mound MN 29:58 9:39

53 Nicole Batulis 29 F Minneapolis MN 30:00 9:40

54 Wally Arnold 51 M Byron MN 30:01 9:40

55 Rick Eickemeyer 50 M Rochester MN 30:19 9:46

56 Carter Benike 11 M Rochester MN 30:23 9:47

57 Aaron Benike 38 M Rochester MN 30:24 9:47

58 Ryan Anderson 33 M Rochester MN 30:26 9:48

59 Andrew Gough 31 M Wichita KS 30:33 9:50

60 Amy Ragland 33 F Rochester MN 30:35 9:51

61 Nina Wobken 56 F Minneapolis MN 30:46 9:54

62 Ann Holmes 13 F Rochester MN 30:48 9:55

63 Ann Nepstad 46 F Byron MN 30:49 9:56

64 Micheal Holmes 53 M Rochester MN 30:50 9:56

65 Elaine Eide 51 F Kasson MN 30:55 9:57

66 Mark Wernstrom 51 M Rochester MN 30:57 9:58

67 Laura Lenz 41 F Rochester MN 31:03 10:00

68 Jean Murray 52 F Rochester MN 31:04 10:00

69 Joshua Johnson 40 M Rochester MN 31:09 10:02

70 Dana Friese 31 F Pine Island MN 31:11 10:03

71 Linda Ambord 55 F Sparta WI 31:18 10:05

72 Lori Klemp 44 F Rochester MN 31:25 10:07

73 Mike Huth 30 M Altura MN 31:33 10:10

74 Lisa Klotzbach 42 F Rochester MN 31:35 10:10

75 Katie Galvin 49 F Rochester MN 31:38 10:11

76 Pam Phillips 56 F Spring Valley MN 31:43 10:13

77 Ryan Holmes 39 M Byron MN 31:44 10:13

78 Sathish Selvaraju 25 M Rochester MN 31:50 10:15

79 Sara Selvaraju 35 F Rochester MN 32:00 10:18

80 Melissa Schuh 26 F Rochester MN 32:10 10:22

81 Tracy Hanson 41 F Rochester MN 32:11 10:22

82 Naura Anderson 28 F Rochester MN 32:14 10:23

83 Ben Nauman 8 M Ramsey MN 32:22 10:26

84 Jon Nauman 45 M Ramsey MN 32:23 10:26

85 Brian Mathison 31 M Apple Valley MN 32:30 10:28

86 Emily Hogen 10 F Rochester MN 32:42 10:32

87 William Hogan 43 M Rochester MN 32:43 10:32

88 Jeffrey Nelson 36 M Lewiston MN 32:46 10:33

89 Sidney Lichty 9 F Rochester MN 32:49 10:34

90 Rebecca Zatorowski 34 F Rochester MN 32:54 10:36

91 Benjamin Pugh 46 M Prior Lake MN 33:14 10:42

92 Kellie Kuisle 47 F Stewartville MN 33:15 10:42

93 Kerrie Heath 30 F Rochester MN 33:24 10:45

94 Diana Sorenson 14 F Rochester MN 33:33 10:48

95 Cindy Smith 51 F Rochester MN 33:38 10:50

96 Shelly Johnson 37 F Rochester MN 34:04 10:58

97 Todd Wade 54 M Rochester MN 34:14 11:01

98 Avery Lichty 6 F Rochester MN 34:22 11:04

99 Todd Lichty 39 M Rochester MN 34:25 11:05

100 Teresa McCormack 48 F Rochester MN 34:31 11:07

101 Shellese Kirtz 31 F Eyota MN 34:43 11:11

102 Melissa Zamzow 29 F Eyota MN 34:46 11:12

103 Andrea Cogal 31 F Rochester MN 35:00 11:16

104 Tamra Drees 42 F Stewartville MN 35:29 11:26

105 Courtney Howes 30 F Rochester MN 35:35 11:27

106 Michelle Hicks 27 F Rochester MN 35:40 11:29

107 Loria Briggs 35 F Eyota MN 35:41 11:29

108 Michelle Buri 44 F Racine MN 35:50 11:32

109 Terry Severson 63 M Rochester MN 35:50 11:32

110 Jodi Kaseno 39 F Rochester MN 35:58 11:35

111 Meg Repede 32 F Rochester MN 36:03 11:36

112 Sasa Andrijasevic 28 M Rochester MN 36:11 11:39

113 Sulynn Russell 35 F Rochester MN 36:15 11:40

114 Melissa Weigel 35 F Rochester MN 36:20 11:42

115 Susie Roudolph-Servi 50 F Maple Grove MN 36:47 11:51

116 Jean Gosse-Stahl 51 F Rochester MN 36:55 11:53

117 Tracy Becker 42 F Rochester MN 37:27 12:04

118 Sara Holmes 10 F Rochester MN 37:32 12:05

119 Eric Sorenson 45 M Rochester MN 37:36 12:06

120 Jay Kimball 49 M Eyota MN 37:52 12:12

121 Jamie Kimball 46 F Rochester MN 37:55 12:13

122 Courtny Lawson 33 F Rochester MN 38:00 12:14

123 John Cook 43 M Claremont MN 38:39 12:27

124 Natalie Ough 33 F Rochester MN 38:51 12:31

125 Cecilia Dingledy 56 F Rochester MN 39:15 12:38

126 Jeanne Nauman 43 F Ramsey MN 39:20 12:40

127 Lisa Palazzari 30 F Gillette WY 39:35 12:45

128 Sue Hartwig 47 F Rochester MN 39:35 12:45

129 Cher Hager 55 F Rochester MN 39:54 12:51

130 Ronda Lovelace 45 F Rochester MN 39:54 12:51

131 Benjamin Schmitt 5 M Rochester MN 43:31 14:01

132 Mike Schmitt 34 M Rochester MN 43:31 14:01

133 Maggie Om 25 F Rochester MN 44:39 14:23

134 Cheryl DeWitt 37 F Rochester MN 44:59 14:29

135 Jenna DeWitt 10 F Rochester MN 45:11 14:33

136 Jerry Reynolds 71 M Rochester MN 47:14 15:12

137 Marcia Thompson 51 F Rochester MN 49:07 15:49














Calendar


Grand Prix sponsors










Life
Site Design and Content: Rochester Track Club
Copyright 2017 1up!

Software © 1998-2017 1up! Software, All Rights Reserved